createdAt,value
2023-05-12T00:00:24.539Z,97.8
2023-05-12T00:12:24.442Z,97.8
2023-05-12T00:24:24.430Z,97.8
2023-05-12T00:36:24.434Z,97.8
2023-05-12T00:48:24.550Z,97.8
2023-05-12T01:00:24.553Z,97.8
2023-05-12T01:12:24.545Z,97.8
2023-05-12T01:24:24.429Z,97.8
2023-05-12T01:36:24.444Z,97.8
2023-05-12T01:48:24.430Z,97.8
2023-05-12T02:00:24.543Z,97.8
2023-05-12T02:12:24.435Z,97.8
2023-05-12T02:24:24.436Z,97.8
2023-05-12T02:36:24.521Z,97.8
2023-05-12T02:48:24.499Z,97.8
2023-05-12T03:00:24.431Z,97.8
2023-05-12T03:12:24.432Z,97.8
2023-05-12T03:24:24.453Z,97.8
2023-05-12T03:36:24.516Z,97.8
2023-05-12T03:48:24.546Z,97.8
2023-05-12T04:00:24.540Z,97.8
2023-05-12T04:12:24.453Z,97.8
2023-05-12T04:24:24.436Z,97.8
2023-05-12T04:36:24.533Z,97.8
2023-05-12T04:48:24.562Z,97.7
2023-05-12T05:00:24.452Z,97.8
2023-05-12T05:12:24.633Z,97.8
2023-05-12T05:24:24.426Z,97.8
2023-05-12T05:36:24.440Z,97.8
2023-05-12T05:48:24.523Z,95.9
2023-05-12T06:00:24.503Z,94.7
2023-05-12T06:12:24.559Z,95.3
2023-05-12T06:24:24.503Z,96.3
2023-05-12T06:36:24.527Z,95.5
2023-05-12T06:48:24.438Z,95.1
2023-05-12T07:00:24.427Z,95.8
2023-05-12T07:12:24.519Z,95.6
2023-05-12T07:24:24.432Z,95.2
2023-05-12T07:36:24.430Z,94.4
2023-05-12T07:48:24.538Z,93.3
2023-05-12T08:00:24.567Z,92.4
2023-05-12T08:12:24.521Z,87.2
2023-05-12T08:24:24.583Z,89.1
2023-05-12T08:36:24.437Z,84.9
2023-05-12T08:48:24.518Z,84.4
2023-05-12T09:00:24.616Z,84.5
2023-05-12T09:12:24.569Z,82.6
2023-05-12T09:24:24.431Z,81.1
2023-05-12T09:36:24.428Z,81.6
2023-05-12T09:48:27.407Z,79.0
2023-05-12T10:00:40.902Z,76.7
2023-05-12T10:12:24.525Z,71.9
2023-05-12T10:24:24.434Z,73.1
2023-05-12T10:36:24.489Z,70.7
2023-05-12T10:48:24.531Z,72.0
2023-05-12T11:00:25.128Z,70.0
2023-05-12T11:12:24.511Z,70.4
2023-05-12T11:24:24.430Z,68.5
2023-05-12T11:36:24.536Z,65.9
2023-05-12T11:48:24.529Z,66.4
2023-05-12T12:00:24.536Z,70.2
2023-05-12T12:12:24.550Z,68.0
2023-05-12T12:24:24.428Z,67.0
2023-05-12T12:36:24.442Z,67.0
2023-05-12T12:48:24.436Z,70.1
2023-05-12T13:00:24.571Z,69.9
2023-05-12T13:12:24.421Z,70.1
2023-05-12T13:24:24.437Z,69.8
2023-05-12T13:36:24.448Z,71.0
2023-05-12T13:48:24.696Z,70.8
2023-05-12T14:00:24.527Z,70.8
2023-05-12T14:12:24.427Z,68.7
2023-05-12T14:24:24.438Z,65.9
2023-05-12T14:36:24.505Z,65.3
2023-05-12T14:48:24.512Z,66.0
2023-05-12T15:00:24.447Z,64.9
2023-05-12T15:12:24.477Z,69.3
2023-05-12T15:24:24.444Z,68.1
2023-05-12T15:36:24.455Z,70.0
2023-05-12T15:48:24.550Z,68.9
2023-05-12T16:00:24.601Z,71.6
2023-05-12T16:12:24.520Z,73.6
2023-05-12T16:24:24.432Z,77.7
2023-05-12T16:36:24.527Z,78.0
2023-05-12T16:48:24.430Z,89.3
2023-05-12T17:00:24.527Z,89.6
2023-05-12T17:12:24.426Z,87.8
2023-05-12T17:24:24.433Z,87.9
2023-05-12T17:36:24.538Z,88.0
2023-05-12T17:48:24.539Z,86.4
2023-05-12T18:00:24.429Z,86.8
2023-05-12T18:12:24.437Z,87.2
2023-05-12T18:24:24.441Z,85.8
2023-05-12T18:36:24.527Z,83.4
2023-05-12T18:48:24.422Z,82.0
2023-05-12T19:00:24.481Z,82.9
2023-05-12T19:12:24.529Z,82.7
2023-05-12T19:24:24.504Z,83.3
2023-05-12T19:36:24.429Z,82.2
2023-05-12T19:48:24.553Z,78.9
2023-05-12T20:00:24.445Z,74.7
2023-05-12T20:12:24.555Z,74.8
2023-05-12T20:24:24.642Z,76.3
2023-05-12T20:36:24.550Z,74.7
2023-05-12T20:48:24.602Z,77.0
2023-05-12T21:00:24.522Z,75.3
2023-05-12T21:12:24.510Z,73.0
2023-05-12T21:24:24.647Z,74.7
2023-05-12T21:36:24.456Z,72.7
2023-05-12T21:48:24.535Z,75.0
2023-05-12T22:00:24.611Z,74.4
2023-05-12T22:12:24.521Z,74.2
2023-05-12T22:24:24.550Z,72.7
2023-05-12T22:36:24.543Z,73.3
2023-05-12T22:48:24.558Z,77.2
2023-05-12T23:00:24.563Z,77.6
2023-05-12T23:12:24.438Z,78.0
2023-05-12T23:24:24.547Z,77.4
2023-05-12T23:36:24.534Z,77.6
2023-05-12T23:48:24.556Z,77.2
